Time;durP1;ratioP1;P1;durP2;ratioP2;P2;SDS_P1;SDS_P2;PMS_P1;PMS_P2;Temp;Humidity;BMP_temperature;BMP_pressure;BME280_temperature;BME280_humidity;BME280_pressure;Samples;Min_cycle;Max_cycle;Signal;HPM_P1;HPM_P2
2023/03/20 00:00:37;;;;;;;7.57;5.03;;;;;;;;;;5135364;27;20035;-64
2023/03/20 00:03:04;;;;;;;7.55;4.57;;;;;;;;;;5138724;27;20606;-64
2023/03/20 00:05:30;;;;;;;9.30;4.22;;;;;;;;;;5113781;27;20077;-64
2023/03/20 00:07:57;;;;;;;7.45;4.28;;;;;;;;;;5130269;27;20111;-65
2023/03/20 00:10:30;;;;;;;4.97;3.90;;;;;;;;;;5131150;27;20050;-64
2023/03/20 00:12:56;;;;;;;3.50;2.97;;;;;;;;;;5126233;27;20050;-64
2023/03/20 00:15:26;;;;;;;3.28;2.58;;;;;;;;;;5128311;27;20038;-64
2023/03/20 00:17:52;;;;;;;3.85;3.47;;;;;;;;;;5126665;27;20366;-64
2023/03/20 00:20:19;;;;;;;3.33;2.60;;;;;;;;;;5128336;27;20036;-64
2023/03/20 00:22:45;;;;;;;3.28;2.90;;;;;;;;;;5127109;27;20046;-64
2023/03/20 00:25:16;;;;;;;2.05;1.92;;;;;;;;;;5128310;27;20438;-64
2023/03/20 00:27:42;;;;;;;2.53;1.77;;;;;;;;;;5127386;27;20050;-64
2023/03/20 00:30:23;;;;;;;2.30;2.20;;;;;;;;;;5129099;27;20670;-64
2023/03/20 00:32:49;;;;;;;3.92;2.63;;;;;;;;;;5130151;27;20039;-64
2023/03/20 00:35:17;;;;;;;2.25;2.03;;;;;;;;;;5134017;27;20099;-64
2023/03/20 00:37:43;;;;;;;2.85;2.00;;;;;;;;;;5132482;27;20054;-64
2023/03/20 00:40:10;;;;;;;3.67;2.00;;;;;;;;;;5126932;27;20043;-64
2023/03/20 00:42:36;;;;;;;2.33;1.60;;;;;;;;;;5130822;27;20143;-64
2023/03/20 00:45:04;;;;;;;3.00;2.20;;;;;;;;;;5126632;27;20035;-64
2023/03/20 00:47:31;;;;;;;2.65;2.08;;;;;;;;;;5105972;27;20123;-65
2023/03/20 00:49:57;;;;;;;4.45;2.20;;;;;;;;;;5125434;27;20385;-65
2023/03/20 00:52:24;;;;;;;4.82;2.28;;;;;;;;;;5126296;27;20050;-64
2023/03/20 00:54:50;;;;;;;3.50;2.47;;;;;;;;;;5125712;27;20066;-68
2023/03/20 00:57:16;;;;;;;2.35;1.98;;;;;;;;;;5130177;27;20486;-64
2023/03/20 00:59:53;;;;;;;2.58;2.08;;;;;;;;;;5125683;27;20763;-64
2023/03/20 01:02:21;;;;;;;3.55;2.03;;;;;;;;;;5129400;27;20125;-64
2023/03/20 01:04:47;;;;;;;3.30;2.20;;;;;;;;;;5126575;27;20047;-64
2023/03/20 01:07:15;;;;;;;2.63;1.58;;;;;;;;;;5125105;27;20520;-64
2023/03/20 01:09:41;;;;;;;1.90;1.63;;;;;;;;;;5127007;27;20078;-64
2023/03/20 01:12:10;;;;;;;2.50;2.03;;;;;;;;;;5125542;27;20535;-64
2023/03/20 01:14:36;;;;;;;2.50;2.30;;;;;;;;;;5124614;27;20046;-64
2023/03/20 01:17:02;;;;;;;2.33;1.80;;;;;;;;;;5129353;27;20043;-65
2023/03/20 01:19:28;;;;;;;2.40;2.17;;;;;;;;;;5125529;27;20043;-64
2023/03/20 01:21:54;;;;;;;3.38;2.40;;;;;;;;;;5130297;27;20039;-64
2023/03/20 01:24:20;;;;;;;3.10;2.40;;;;;;;;;;5108603;27;20039;-65
2023/03/20 01:26:46;;;;;;;3.63;2.10;;;;;;;;;;5126546;27;20043;-64
2023/03/20 01:29:17;;;;;;;3.15;2.38;;;;;;;;;;5124604;27;20042;-64
2023/03/20 01:31:43;;;;;;;2.10;1.90;;;;;;;;;;5125507;27;20715;-64
2023/03/20 01:34:10;;;;;;;1.55;1.27;;;;;;;;;;5124790;27;20126;-65
2023/03/20 01:36:37;;;;;;;2.92;1.80;;;;;;;;;;5127492;27;20099;-65
2023/03/20 01:39:03;;;;;;;2.25;1.90;;;;;;;;;;5130197;27;20039;-65
2023/03/20 01:41:29;;;;;;;3.08;1.92;;;;;;;;;;5125308;27;20399;-64
2023/03/20 01:43:55;;;;;;;3.20;2.00;;;;;;;;;;5125151;27;20122;-64
2023/03/20 01:46:27;;;;;;;2.70;2.08;;;;;;;;;;5108299;27;20555;-64
2023/03/20 01:48:53;;;;;;;4.05;2.67;;;;;;;;;;5109116;27;20055;-66
2023/03/20 01:51:31;;;;;;;10.45;3.03;;;;;;;;;;5124490;27;20078;-65
2023/03/20 01:54:04;;;;;;;4.15;2.72;;;;;;;;;;5129309;27;20047;-65
2023/03/20 01:56:32;;;;;;;3.30;2.92;;;;;;;;;;5128703;27;20058;-65
2023/03/20 01:59:00;;;;;;;6.18;3.15;;;;;;;;;;5124378;27;20489;-64
2023/03/20 02:01:26;;;;;;;5.70;3.53;;;;;;;;;;5127747;27;20063;-64
2023/03/20 02:03:53;;;;;;;2.60;2.30;;;;;;;;;;5123821;27;20094;-64
2023/03/20 02:06:21;;;;;;;5.90;3.40;;;;;;;;;;5128588;27;20094;-65
2023/03/20 02:08:48;;;;;;;4.65;3.00;;;;;;;;;;5123690;27;20116;-64
2023/03/20 02:11:16;;;;;;;5.38;3.80;;;;;;;;;;5126398;27;20035;-64
2023/03/20 02:13:43;;;;;;;4.43;3.30;;;;;;;;;;5124650;27;20047;-64
2023/03/20 02:16:13;;;;;;;3.55;3.25;;;;;;;;;;5088906;27;20130;-64
2023/03/20 02:18:41;;;;;;;8.07;4.20;;;;;;;;;;5125664;27;20050;-65
2023/03/20 02:21:20;;;;;;;6.13;4.18;;;;;;;;;;5107433;27;20523;-64
2023/03/20 02:24:05;;;;;;;4.80;3.33;;;;;;;;;;5124360;27;20055;-64
2023/03/20 02:26:34;;;;;;;3.55;3.25;;;;;;;;;;5126120;27;20064;-64
2023/03/20 02:29:20;;;;;;;5.93;3.55;;;;;;;;;;5129662;27;20108;-64
2023/03/20 02:31:53;;;;;;;6.65;3.65;;;;;;;;;;5128025;27;20054;-64
2023/03/20 02:34:19;;;;;;;5.22;3.63;;;;;;;;;;5124022;27;20042;-64
2023/03/20 02:37:05;;;;;;;8.70;4.63;;;;;;;;;;5123779;27;20039;-64
2023/03/20 02:39:51;;;;;;;6.82;4.35;;;;;;;;;;5127504;27;20508;-65
2023/03/20 02:42:29;;;;;;;7.72;4.35;;;;;;;;;;5131097;27;20038;-64
2023/03/20 02:44:55;;;;;;;5.65;4.72;;;;;;;;;;5124944;27;20050;-64
2023/03/20 02:47:23;;;;;;;10.20;4.72;;;;;;;;;;5122909;27;20050;-64
2023/03/20 02:49:49;;;;;;;5.18;3.83;;;;;;;;;;5123921;27;20039;-64
2023/03/20 02:52:34;;;;;;;4.63;3.47;;;;;;;;;;5128189;27;20046;-64
2023/03/20 02:55:05;;;;;;;7.70;4.47;;;;;;;;;;5128234;27;20051;-64
2023/03/20 02:57:37;;;;;;;5.20;3.45;;;;;;;;;;5126210;27;20130;-65
2023/03/20 03:00:08;;;;;;;7.35;4.25;;;;;;;;;;5133155;27;20070;-65
2023/03/20 03:02:39;;;;;;;5.22;3.38;;;;;;;;;;5124447;27;20062;-64
2023/03/20 03:05:22;;;;;;;3.85;3.47;;;;;;;;;;5124236;27;20080;-64
2023/03/20 03:07:48;;;;;;;;;;;;;;;;;;5122680;27;20051;-65
2023/03/20 03:10:14;;;;;;;6.78;3.65;;;;;;;;;;5125264;27;19930;-65
2023/03/20 03:12:42;;;;;;;3.83;3.05;;;;;;;;;;5110184;27;20055;-64
2023/03/20 03:15:27;;;;;;;3.67;3.13;;;;;;;;;;5133437;27;20042;-64
2023/03/20 03:17:54;;;;;;;4.47;3.78;;;;;;;;;;5132905;27;20047;-65
2023/03/20 03:20:27;;;;;;;5.78;3.92;;;;;;;;;;5129901;27;20054;-64
2023/03/20 03:22:53;;;;;;;3.88;3.42;;;;;;;;;;5112304;27;20138;-64
2023/03/20 03:25:22;;;;;;;7.35;4.45;;;;;;;;;;5128150;27;20255;-64
2023/03/20 03:27:53;;;;;;;4.78;4.25;;;;;;;;;;5134785;27;20046;-64
2023/03/20 03:30:24;;;;;;;8.50;4.53;;;;;;;;;;5131807;27;20454;-64
2023/03/20 03:33:02;;;;;;;8.20;4.80;;;;;;;;;;5131714;27;20047;-64
2023/03/20 03:35:28;;;;;;;7.03;3.90;;;;;;;;;;5131102;27;20129;-64
2023/03/20 03:37:57;;;;;;;4.93;4.10;;;;;;;;;;5138047;27;20161;-64
2023/03/20 03:40:31;;;;;;;7.68;4.15;;;;;;;;;;5128420;27;20068;-65
2023/03/20 03:43:00;;;;;;;7.55;4.57;;;;;;;;;;5115749;27;20053;-64
2023/03/20 03:45:26;;;;;;;7.25;5.05;;;;;;;;;;5126978;27;20074;-64
2023/03/20 03:47:58;;;;;;;7.65;5.35;;;;;;;;;;5126283;27;20479;-64
2023/03/20 03:50:26;;;;;;;5.82;3.60;;;;;;;;;;5126661;27;20119;-64
2023/03/20 03:52:52;;;;;;;8.93;4.90;;;;;;;;;;5127250;27;20043;-64
2023/03/20 03:55:20;;;;;;;6.07;4.82;;;;;;;;;;5132432;27;20046;-64
2023/03/20 03:57:49;;;;;;;5.32;4.82;;;;;;;;;;5133290;27;20039;-65
2023/03/20 04:00:19;;;;;;;7.32;5.80;;;;;;;;;;5130212;27;20039;-64
2023/03/20 04:02:47;;;;;;;7.45;5.60;;;;;;;;;;5127149;27;20421;-64
2023/03/20 04:05:13;;;;;;;7.60;5.50;;;;;;;;;;5126564;27;20591;-65
2023/03/20 04:07:39;;;;;;;5.50;5.00;;;;;;;;;;5128609;27;20413;-64
2023/03/20 04:10:06;;;;;;;9.57;5.18;;;;;;;;;;5126258;27;20135;-64
2023/03/20 04:12:35;;;;;;;7.68;4.60;;;;;;;;;;5131066;27;20155;-64
2023/03/20 04:15:01;;;;;;;6.53;4.75;;;;;;;;;;5129372;27;20073;-64
2023/03/20 04:17:27;;;;;;;7.15;4.47;;;;;;;;;;5132525;27;20043;-65
2023/03/20 04:19:53;;;;;;;11.85;5.20;;;;;;;;;;5134798;27;20061;-65
2023/03/20 04:22:19;;;;;;;7.72;5.25;;;;;;;;;;5129970;27;20043;-64
2023/03/20 04:24:45;;;;;;;5.65;5.00;;;;;;;;;;5130103;27;20082;-64
2023/03/20 04:27:11;;;;;;;4.95;4.45;;;;;;;;;;5126224;27;20043;-65
2023/03/20 04:29:37;;;;;;;6.03;4.57;;;;;;;;;;5126818;27;20039;-64
2023/03/20 04:32:03;;;;;;;4.75;3.72;;;;;;;;;;5126218;27;20204;-64
2023/03/20 04:34:29;;;;;;;5.35;3.80;;;;;;;;;;5133907;27;20046;-64
2023/03/20 04:36:55;;;;;;;6.40;3.78;;;;;;;;;;5137231;27;20050;-64
2023/03/20 04:39:21;;;;;;;6.55;4.82;;;;;;;;;;5135210;27;20046;-65
2023/03/20 04:41:47;;;;;;;7.72;4.13;;;;;;;;;;5135047;27;20053;-64
2023/03/20 04:44:13;;;;;;;6.82;4.78;;;;;;;;;;5137786;27;20094;-64
2023/03/20 04:46:39;;;;;;;6.95;4.95;;;;;;;;;;5137973;27;20049;-64
2023/03/20 04:49:05;;;;;;;10.18;6.20;;;;;;;;;;5136146;27;20042;-64
2023/03/20 04:51:31;;;;;;;9.23;6.10;;;;;;;;;;5136154;27;20077;-64
2023/03/20 04:53:57;;;;;;;9.35;6.20;;;;;;;;;;5133321;27;20926;-64
2023/03/20 04:56:23;;;;;;;6.90;5.65;;;;;;;;;;5134859;27;20043;-64
2023/03/20 04:58:49;;;;;;;7.22;5.63;;;;;;;;;;5134282;27;20044;-65
2023/03/20 05:01:15;;;;;;;6.78;5.40;;;;;;;;;;5135943;27;20078;-65
2023/03/20 05:03:41;;;;;;;7.80;6.30;;;;;;;;;;5135178;27;20092;-64
2023/03/20 05:06:08;;;;;;;9.90;6.78;;;;;;;;;;5132981;27;20042;-64
2023/03/20 05:08:34;;;;;;;7.95;6.57;;;;;;;;;;5130681;27;20076;-66
2023/03/20 05:11:00;;;;;;;8.95;6.78;;;;;;;;;;5127919;27;20044;-65
2023/03/20 05:13:26;;;;;;;9.00;5.65;;;;;;;;;;5128152;27;20054;-64
2023/03/20 05:15:52;;;;;;;9.35;6.65;;;;;;;;;;5127286;27;20051;-64
2023/03/20 05:18:18;;;;;;;9.90;7.20;;;;;;;;;;5126056;27;20493;-64
2023/03/20 05:20:44;;;;;;;7.93;6.75;;;;;;;;;;5125154;27;20035;-64
2023/03/20 05:23:10;;;;;;;10.38;6.72;;;;;;;;;;5131223;27;20050;-64
2023/03/20 05:25:36;;;;;;;8.07;6.60;;;;;;;;;;5136711;27;20047;-64
2023/03/20 05:28:02;;;;;;;10.75;7.45;;;;;;;;;;5133382;27;20095;-65
2023/03/20 05:30:28;;;;;;;8.70;6.45;;;;;;;;;;5136192;27;20138;-65
2023/03/20 05:32:55;;;;;;;9.77;7.22;;;;;;;;;;5133526;27;20047;-64
2023/03/20 05:35:21;;;;;;;9.90;7.15;;;;;;;;;;5134884;27;20066;-64
2023/03/20 05:37:47;;;;;;;10.07;7.28;;;;;;;;;;5136819;27;20034;-64
2023/03/20 05:40:15;;;;;;;10.30;7.20;;;;;;;;;;5133724;27;20516;-65
2023/03/20 05:42:41;;;;;;;11.50;7.03;;;;;;;;;;5134106;27;20115;-64
2023/03/20 05:45:07;;;;;;;11.02;8.52;;;;;;;;;;5133609;27;20049;-64
2023/03/20 05:47:34;;;;;;;14.20;8.70;;;;;;;;;;5113924;27;20051;-64
2023/03/20 05:50:00;;;;;;;11.30;8.02;;;;;;;;;;5132610;27;20039;-65
2023/03/20 05:52:26;;;;;;;15.82;9.15;;;;;;;;;;5133810;27;20078;-64
2023/03/20 05:54:52;;;;;;;15.25;8.50;;;;;;;;;;5125081;27;20136;-64
2023/03/20 05:57:18;;;;;;;11.93;7.35;;;;;;;;;;5123778;27;20121;-64
2023/03/20 05:59:44;;;;;;;11.68;8.10;;;;;;;;;;5130854;27;20446;-64
2023/03/20 06:02:10;;;;;;;11.77;7.70;;;;;;;;;;5134213;27;20463;-64
2023/03/20 06:04:36;;;;;;;12.77;7.90;;;;;;;;;;5134321;27;20512;-64
2023/03/20 06:07:03;;;;;;;10.63;8.10;;;;;;;;;;5134222;27;20066;-64
2023/03/20 06:09:29;;;;;;;10.68;7.15;;;;;;;;;;5133699;27;20527;-64
2023/03/20 06:11:56;;;;;;;8.75;7.78;;;;;;;;;;5135167;27;20122;-65
2023/03/20 06:14:22;;;;;;;11.18;7.70;;;;;;;;;;5135318;27;20509;-64
2023/03/20 06:16:48;;;;;;;9.50;6.45;;;;;;;;;;5134548;27;20051;-64
2023/03/20 06:19:14;;;;;;;11.73;7.25;;;;;;;;;;5133611;27;20043;-64
2023/03/20 06:21:40;;;;;;;14.43;8.15;;;;;;;;;;5134332;27;20042;-65
2023/03/20 06:24:06;;;;;;;10.73;6.13;;;;;;;;;;5132239;27;20039;-64
2023/03/20 06:26:32;;;;;;;8.88;6.95;;;;;;;;;;5136310;27;20445;-64
2023/03/20 06:28:59;;;;;;;12.15;8.55;;;;;;;;;;5131903;27;20053;-64
2023/03/20 06:31:26;;;;;;;17.52;8.23;;;;;;;;;;5129628;27;20058;-65
2023/03/20 06:33:52;;;;;;;9.27;7.57;;;;;;;;;;5133859;27;20050;-64
2023/03/20 06:36:18;;;;;;;8.98;7.63;;;;;;;;;;5135097;27;20046;-64
2023/03/20 06:38:44;;;;;;;11.32;7.57;;;;;;;;;;5134661;27;20093;-64
2023/03/20 06:41:10;;;;;;;12.43;8.10;;;;;;;;;;5132791;27;20548;-64
2023/03/20 06:43:36;;;;;;;9.10;6.55;;;;;;;;;;5133023;27;20043;-64
2023/03/20 06:46:03;;;;;;;9.23;7.35;;;;;;;;;;5130955;27;20047;-64
2023/03/20 06:48:29;;;;;;;9.27;7.03;;;;;;;;;;5132384;27;20035;-64
2023/03/20 06:50:55;;;;;;;9.70;7.65;;;;;;;;;;5130660;27;20035;-64
2023/03/20 06:53:21;;;;;;;9.30;7.43;;;;;;;;;;5134067;27;20050;-64
2023/03/20 06:55:47;;;;;;;10.82;7.93;;;;;;;;;;5135307;27;20485;-64
2023/03/20 06:58:13;;;;;;;11.43;7.55;;;;;;;;;;5134210;27;20054;-64
2023/03/20 07:00:39;;;;;;;12.52;7.93;;;;;;;;;;5131546;27;20043;-64
2023/03/20 07:03:05;;;;;;;11.32;7.90;;;;;;;;;;5137922;27;20053;-64
2023/03/20 07:05:32;;;;;;;11.57;8.20;;;;;;;;;;5132911;27;20364;-64
2023/03/20 07:07:58;;;;;;;12.00;7.90;;;;;;;;;;5134562;27;20307;-65
2023/03/20 07:10:26;;;;;;;11.93;7.63;;;;;;;;;;5134315;27;20077;-65
2023/03/20 07:12:52;;;;;;;8.73;6.90;;;;;;;;;;5133782;27;20053;-64
2023/03/20 07:15:18;;;;;;;16.00;8.15;;;;;;;;;;5129728;27;20043;-64
2023/03/20 07:17:44;;;;;;;12.65;7.75;;;;;;;;;;5133251;27;20047;-64
2023/03/20 07:20:11;;;;;;;10.88;6.97;;;;;;;;;;5133921;27;20061;-64
2023/03/20 07:22:38;;;;;;;12.68;7.78;;;;;;;;;;5130937;27;20487;-65
2023/03/20 07:25:04;;;;;;;12.43;8.38;;;;;;;;;;5130711;27;20135;-64
2023/03/20 07:27:30;;;;;;;13.55;8.52;;;;;;;;;;5132670;27;20053;-64
2023/03/20 07:29:56;;;;;;;12.20;7.50;;;;;;;;;;5137165;27;20068;-65
2023/03/20 07:32:22;;;;;;;12.55;8.45;;;;;;;;;;5137440;27;20043;-64
2023/03/20 07:34:49;;;;;;;14.95;8.85;;;;;;;;;;5132081;27;20401;-64
2023/03/20 07:37:16;;;;;;;10.82;8.23;;;;;;;;;;5134072;27;20043;-64
2023/03/20 07:39:42;;;;;;;13.50;9.52;;;;;;;;;;5136687;27;20492;-64
2023/03/20 07:42:08;;;;;;;10.63;8.10;;;;;;;;;;5131118;27;20043;-64
2023/03/20 07:44:34;;;;;;;17.20;8.73;;;;;;;;;;5136910;27;20054;-64
2023/03/20 07:47:00;;;;;;;12.52;8.57;;;;;;;;;;5133508;27;20039;-64
2023/03/20 07:49:26;;;;;;;13.73;9.23;;;;;;;;;;5131214;27;20488;-64
2023/03/20 07:51:53;;;;;;;14.52;9.20;;;;;;;;;;5135028;27;20043;-65
2023/03/20 07:54:20;;;;;;;12.48;8.18;;;;;;;;;;5131350;27;20042;-65
2023/03/20 07:56:46;;;;;;;15.65;8.95;;;;;;;;;;5129314;27;20047;-64
2023/03/20 07:59:13;;;;;;;14.68;7.85;;;;;;;;;;5136229;27;20046;-64
2023/03/20 08:01:39;;;;;;;11.23;7.88;;;;;;;;;;5135854;27;20103;-65
2023/03/20 08:04:05;;;;;;;12.43;8.23;;;;;;;;;;5139701;27;20104;-64
2023/03/20 08:06:31;;;;;;;18.98;10.18;;;;;;;;;;5138734;27;20170;-64
2023/03/20 08:08:57;;;;;;;15.65;9.70;;;;;;;;;;5138304;27;20062;-64
2023/03/20 08:11:23;;;;;;;10.30;8.25;;;;;;;;;;5137241;27;20047;-64
2023/03/20 08:13:49;;;;;;;12.73;9.00;;;;;;;;;;5135510;27;20069;-65
2023/03/20 08:16:15;;;;;;;12.30;8.68;;;;;;;;;;5134883;27;20047;-64
2023/03/20 08:18:41;;;;;;;13.75;8.77;;;;;;;;;;5131719;27;20074;-64
2023/03/20 08:21:07;;;;;;;13.30;8.77;;;;;;;;;;5119430;27;20135;-64
2023/03/20 08:23:33;;;;;;;16.05;9.80;;;;;;;;;;5134745;27;20067;-64
2023/03/20 08:25:59;;;;;;;10.77;7.05;;;;;;;;;;5138793;27;20091;-64
2023/03/20 08:28:25;;;;;;;13.25;9.10;;;;;;;;;;5136241;27;20047;-64
2023/03/20 08:30:52;;;;;;;15.52;9.20;;;;;;;;;;5133999;27;20585;-64
2023/03/20 08:33:18;;;;;;;15.15;8.50;;;;;;;;;;5135458;27;20527;-64
2023/03/20 08:35:54;;;;;;;16.92;9.68;;;;;;;;;;5136072;27;20124;-64
2023/03/20 08:38:20;;;;;;;16.88;10.23;;;;;;;;;;5134254;27;20248;-64
2023/03/20 08:40:46;;;;;;;12.88;9.40;;;;;;;;;;5142600;27;20043;-64
2023/03/20 08:43:12;;;;;;;16.25;9.55;;;;;;;;;;5133292;27;20492;-64
2023/03/20 08:45:38;;;;;;;13.63;9.63;;;;;;;;;;5133256;27;20062;-64
2023/03/20 08:48:04;;;;;;;14.02;9.13;;;;;;;;;;5136731;27;20050;-64
2023/03/20 08:50:31;;;;;;;19.52;8.98;;;;;;;;;;5142103;27;20405;-64
2023/03/20 08:52:57;;;;;;;12.07;8.60;;;;;;;;;;5142093;27;20046;-58
2023/03/20 08:55:23;;;;;;;13.07;8.88;;;;;;;;;;5139341;27;20054;-58
2023/03/20 08:57:49;;;;;;;13.23;9.05;;;;;;;;;;5138895;27;20273;-61
2023/03/20 09:00:16;;;;;;;10.65;8.45;;;;;;;;;;5140211;27;20048;-59
2023/03/20 09:02:42;;;;;;;10.02;7.53;;;;;;;;;;5142120;27;20133;-63
2023/03/20 09:05:09;;;;;;;21.27;10.10;;;;;;;;;;5132848;27;20064;-63
2023/03/20 09:07:35;;;;;;;10.05;7.78;;;;;;;;;;5145761;27;20046;-64
2023/03/20 09:10:02;;;;;;;13.88;8.77;;;;;;;;;;5148262;27;20043;-64
2023/03/20 09:12:30;;;;;;;10.65;7.82;;;;;;;;;;5128985;27;20038;-64
2023/03/20 09:14:56;;;;;;;10.70;8.43;;;;;;;;;;5139576;27;20054;-64
2023/03/20 09:17:22;;;;;;;10.27;8.05;;;;;;;;;;5137910;27;20043;-64
2023/03/20 09:19:48;;;;;;;10.13;7.30;;;;;;;;;;5133811;27;20556;-64
2023/03/20 09:22:16;;;;;;;14.45;8.45;;;;;;;;;;5141598;27;20083;-64
2023/03/20 09:24:43;;;;;;;12.35;8.60;;;;;;;;;;5139814;27;20107;-64
2023/03/20 09:27:09;;;;;;;12.68;7.82;;;;;;;;;;5143076;27;20088;-64
2023/03/20 09:29:35;;;;;;;13.93;8.48;;;;;;;;;;5142179;27;20031;-65
2023/03/20 09:32:01;;;;;;;10.90;7.22;;;;;;;;;;5142189;27;20066;-64
2023/03/20 09:34:28;;;;;;;15.07;8.73;;;;;;;;;;5130901;27;20043;-64
2023/03/20 09:36:54;;;;;;;16.30;9.00;;;;;;;;;;5129363;27;20057;-63
2023/03/20 09:39:20;;;;;;;14.27;8.20;;;;;;;;;;5138957;27;20435;-63
2023/03/20 09:41:50;;;;;;;11.68;8.30;;;;;;;;;;5147388;27;20050;-62
2023/03/20 09:44:23;;;;;;;11.30;7.57;;;;;;;;;;5132998;27;20043;-62
2023/03/20 09:47:08;;;;;;;14.40;8.52;;;;;;;;;;5142553;27;20046;-62
2023/03/20 09:49:40;;;;;;;8.75;7.28;;;;;;;;;;5132432;27;20564;-62
2023/03/20 09:52:16;;;;;;;13.40;8.10;;;;;;;;;;5135560;27;20081;-63
2023/03/20 09:54:44;;;;;;;12.23;7.38;;;;;;;;;;5137294;27;20666;-62
2023/03/20 09:57:19;;;;;;;10.90;7.93;;;;;;;;;;5149163;27;21189;-62
2023/03/20 09:59:46;;;;;;;11.15;7.72;;;;;;;;;;5155193;27;20038;-64
2023/03/20 10:02:15;;;;;;;15.02;8.15;;;;;;;;;;5132636;27;20054;-62
2023/03/20 10:04:42;;;;;;;14.88;7.40;;;;;;;;;;5131128;27;20051;-62
2023/03/20 10:07:10;;;;;;;8.00;6.53;;;;;;;;;;5130291;27;20061;-62
2023/03/20 10:09:36;;;;;;;13.02;7.13;;;;;;;;;;5130835;27;20058;-62
2023/03/20 10:12:26;;;;;;;11.02;7.22;;;;;;;;;;5106548;27;20135;-61
2023/03/20 10:15:10;;;;;;;11.20;6.95;;;;;;;;;;5131766;27;20051;-61
2023/03/20 10:17:48;;;;;;;12.30;7.22;;;;;;;;;;5127865;27;20212;-61
2023/03/20 10:20:33;;;;;;;14.73;6.88;;;;;;;;;;5143813;27;20038;-58
2023/03/20 10:23:12;;;;;;;14.98;7.07;;;;;;;;;;5138279;27;20046;-62
2023/03/20 10:25:42;;;;;;;9.57;6.55;;;;;;;;;;5146822;27;20176;-59
2023/03/20 10:28:13;;;;;;;11.45;6.38;;;;;;;;;;5137722;27;20053;-59
2023/03/20 10:30:39;;;;;;;11.00;6.97;;;;;;;;;;5126046;27;20043;-60
2023/03/20 10:33:25;;;;;;;8.90;6.15;;;;;;;;;;5139768;27;20516;-60
2023/03/20 10:36:13;;;;;;;12.65;7.65;;;;;;;;;;5146685;27;20047;-62
2023/03/20 10:38:48;;;;;;;13.02;7.68;;;;;;;;;;5135047;27;20047;-59
2023/03/20 10:41:18;;;;;;;11.98;7.53;;;;;;;;;;5133016;27;20130;-60
2023/03/20 10:43:45;;;;;;;10.45;7.45;;;;;;;;;;5130933;27;20485;-59
2023/03/20 10:46:14;;;;;;;13.73;6.90;;;;;;;;;;5138817;27;20142;-60
2023/03/20 10:48:46;;;;;;;13.27;7.75;;;;;;;;;;5138211;27;20047;-59
2023/03/20 10:51:13;;;;;;;;;;;;;;;;;;5137773;27;20047;-60
2023/03/20 10:53:48;;;;;;;11.75;7.80;;;;;;;;;;5146699;27;20009;-61
2023/03/20 10:56:27;;;;;;;14.38;7.75;;;;;;;;;;5144179;27;20168;-59
2023/03/20 10:58:57;;;;;;;11.55;7.75;;;;;;;;;;5131270;27;20043;-60
2023/03/20 11:01:23;;;;;;;16.15;8.63;;;;;;;;;;5139530;27;20038;-62
2023/03/20 11:03:49;;;;;;;15.45;8.50;;;;;;;;;;5145286;27;20046;-62
2023/03/20 11:06:16;;;;;;;12.15;7.82;;;;;;;;;;5133453;27;20043;-61
2023/03/20 11:08:45;;;;;;;12.38;8.23;;;;;;;;;;5140150;27;20111;-61
2023/03/20 11:11:11;;;;;;;15.32;7.80;;;;;;;;;;5146444;27;20046;-61
2023/03/20 11:13:43;;;;;;;11.70;7.75;;;;;;;;;;5127096;27;20035;-61
2023/03/20 11:16:20;;;;;;;15.65;7.45;;;;;;;;;;5142703;27;20057;-61
2023/03/20 11:18:48;;;;;;;15.57;8.85;;;;;;;;;;5139452;27;20047;-62
2023/03/20 11:21:19;;;;;;;14.75;8.13;;;;;;;;;;5145026;27;20126;-62
2023/03/20 11:23:45;;;;;;;14.57;8.30;;;;;;;;;;5133051;27;20375;-61
2023/03/20 11:26:15;;;;;;;22.48;8.73;;;;;;;;;;5129688;27;20054;-61
2023/03/20 11:28:42;;;;;;;12.90;7.28;;;;;;;;;;5146475;27;20054;-61
2023/03/20 11:31:25;;;;;;;14.40;7.20;;;;;;;;;;5152265;27;20068;-60
2023/03/20 11:33:52;;;;;;;10.18;6.85;;;;;;;;;;5129017;27;20043;-60
2023/03/20 11:36:23;;;;;;;10.98;7.38;;;;;;;;;;5139895;27;20042;-61
2023/03/20 11:38:50;;;;;;;16.10;7.25;;;;;;;;;;5144178;27;20065;-62
2023/03/20 11:41:17;;;;;;;12.40;7.45;;;;;;;;;;5149247;27;20049;-61
2023/03/20 11:43:43;;;;;;;16.15;7.43;;;;;;;;;;5137727;27;20520;-62
2023/03/20 11:46:12;;;;;;;8.68;6.22;;;;;;;;;;5149246;27;20068;-60
2023/03/20 11:48:40;;;;;;;17.33;6.55;;;;;;;;;;5136769;27;20108;-61
2023/03/20 11:51:08;;;;;;;10.73;6.60;;;;;;;;;;5136219;27;20135;-61
2023/03/20 11:53:37;;;;;;;8.38;4.82;;;;;;;;;;5147943;27;20047;-57
2023/03/20 11:56:07;;;;;;;5.38;4.05;;;;;;;;;;5149589;27;20051;-62
2023/03/20 11:58:34;;;;;;;7.50;4.30;;;;;;;;;;5144223;27;20039;-62
2023/03/20 12:01:02;;;;;;;5.80;2.75;;;;;;;;;;5148221;27;20389;-61
2023/03/20 12:03:41;;;;;;;5.03;2.40;;;;;;;;;;5149014;27;20442;-62
2023/03/20 12:06:08;;;;;;;6.95;2.97;;;;;;;;;;5149566;27;20050;-62
2023/03/20 12:08:36;;;;;;;5.47;3.03;;;;;;;;;;5147740;27;20091;-61
2023/03/20 12:11:22;;;;;;;6.47;2.88;;;;;;;;;;5147064;27;20400;-62
2023/03/20 12:13:50;;;;;;;6.60;2.80;;;;;;;;;;5094490;27;20134;-61
2023/03/20 12:16:17;;;;;;;6.30;2.13;;;;;;;;;;5146552;27;20552;-60
2023/03/20 12:18:48;;;;;;;6.47;2.80;;;;;;;;;;5141169;27;20043;-61
2023/03/20 12:21:32;;;;;;;4.57;3.00;;;;;;;;;;5128512;27;20046;-62
2023/03/20 12:24:05;;;;;;;4.47;2.78;;;;;;;;;;5139187;27;20094;-61
2023/03/20 12:26:31;;;;;;;4.13;2.80;;;;;;;;;;5144128;27;20501;-61
2023/03/20 12:29:30;;;;;;;5.53;3.25;;;;;;;;;;5132923;27;20042;-62
2023/03/20 12:31:58;;;;;;;7.07;3.90;;;;;;;;;;5082919;27;20086;-63
2023/03/20 12:34:40;;;;;;;4.88;3.90;;;;;;;;;;5128623;27;20035;-62
2023/03/20 12:37:06;;;;;;;;;;;;;;;;;;5127120;27;20050;-61
2023/03/20 12:39:34;;;;;;;6.30;3.45;;;;;;;;;;5128013;27;19968;-61
2023/03/20 12:42:06;;;;;;;5.90;4.43;;;;;;;;;;5127869;27;20047;-61
2023/03/20 12:44:37;;;;;;;6.75;4.95;;;;;;;;;;5127304;27;20088;-61
2023/03/20 12:47:22;;;;;;;5.47;4.88;;;;;;;;;;5128318;27;20050;-62
2023/03/20 12:49:55;;;;;;;6.20;4.88;;;;;;;;;;5110453;27;20524;-61
2023/03/20 12:52:33;;;;;;;7.45;4.53;;;;;;;;;;5134281;27;20834;-63
2023/03/20 12:54:59;;;;;;;5.28;4.40;;;;;;;;;;5127057;27;20100;-63
2023/03/20 12:57:44;;;;;;;6.15;4.25;;;;;;;;;;5132711;27;20035;-62
2023/03/20 13:00:17;;;;;;;8.98;4.82;;;;;;;;;;5109561;27;20059;-61
2023/03/20 13:02:49;;;;;;;8.30;5.07;;;;;;;;;;5114782;27;20047;-61
2023/03/20 13:05:24;;;;;;;6.35;4.43;;;;;;;;;;5126815;27;20039;-62
2023/03/20 13:07:54;;;;;;;6.50;4.65;;;;;;;;;;5127191;27;20039;-62
2023/03/20 13:10:27;;;;;;;7.88;5.35;;;;;;;;;;5132870;27;20513;-61
2023/03/20 13:12:53;;;;;;;8.40;4.68;;;;;;;;;;5128907;27;20043;-61
2023/03/20 13:15:26;;;;;;;7.38;5.15;;;;;;;;;;5129463;27;20388;-61
2023/03/20 13:18:05;;;;;;;6.63;6.00;;;;;;;;;;5133294;27;20042;-61
2023/03/20 13:20:33;;;;;;;7.00;5.28;;;;;;;;;;5129001;27;20426;-61
2023/03/20 13:23:18;;;;;;;6.30;4.95;;;;;;;;;;5134805;27;20542;-62
2023/03/20 13:26:03;;;;;;;6.47;5.28;;;;;;;;;;5126080;27;20051;-62
2023/03/20 13:28:35;;;;;;;7.60;5.13;;;;;;;;;;5135028;27;20042;-61
2023/03/20 13:31:04;;;;;;;5.68;4.97;;;;;;;;;;5126138;27;20047;-61
2023/03/20 13:33:52;;;;;;;6.88;5.63;;;;;;;;;;5128542;27;20089;-62
2023/03/20 13:36:23;;;;;;;11.10;6.38;;;;;;;;;;5128951;27;20066;-60
2023/03/20 13:38:53;;;;;;;6.40;5.82;;;;;;;;;;5131272;27;20125;-62
2023/03/20 13:41:19;;;;;;;5.20;4.70;;;;;;;;;;5140692;27;20039;-60
2023/03/20 13:43:53;;;;;;;7.07;5.30;;;;;;;;;;5129809;27;20043;-62
2023/03/20 13:46:33;;;;;;;7.78;5.10;;;;;;;;;;5127093;27;20512;-62
2023/03/20 13:49:03;;;;;;;6.00;5.40;;;;;;;;;;5135558;27;20405;-61
2023/03/20 13:51:33;;;;;;;7.55;5.35;;;;;;;;;;5138497;27;20058;-62
2023/03/20 13:54:11;;;;;;;5.63;4.95;;;;;;;;;;5129704;27;20070;-61
2023/03/20 13:56:44;;;;;;;6.53;5.35;;;;;;;;;;5146119;27;20117;-61
2023/03/20 13:59:22;;;;;;;5.95;5.45;;;;;;;;;;5125802;27;20069;-61
2023/03/20 14:01:49;;;;;;;6.63;6.00;;;;;;;;;;5124499;27;20153;-61
2023/03/20 14:04:18;;;;;;;6.07;5.45;;;;;;;;;;5126447;27;20062;-62
2023/03/20 14:06:49;;;;;;;6.55;5.95;;;;;;;;;;5126622;27;20051;-62
2023/03/20 14:09:26;;;;;;;5.88;5.38;;;;;;;;;;5124980;27;20059;-62
2023/03/20 14:11:56;;;;;;;5.15;4.65;;;;;;;;;;5126382;27;20050;-61
2023/03/20 14:14:27;;;;;;;7.13;5.40;;;;;;;;;;5125995;27;20062;-64
2023/03/20 14:17:00;;;;;;;5.38;4.95;;;;;;;;;;5124401;27;20536;-62
2023/03/20 14:19:26;;;;;;;5.18;4.78;;;;;;;;;;5124804;27;20604;-62
2023/03/20 14:21:55;;;;;;;5.80;5.22;;;;;;;;;;5122941;27;20054;-61
2023/03/20 14:24:23;;;;;;;5.97;5.38;;;;;;;;;;5124119;27;20074;-61
2023/03/20 14:26:50;;;;;;;6.55;5.72;;;;;;;;;;5124098;27;20050;-61
2023/03/20 14:29:16;;;;;;;7.90;5.82;;;;;;;;;;5124523;27;20477;-61
2023/03/20 14:31:44;;;;;;;7.53;6.30;;;;;;;;;;5126831;27;20054;-62
2023/03/20 14:34:13;;;;;;;6.05;5.55;;;;;;;;;;5126352;27;20057;-60
2023/03/20 14:36:57;;;;;;;7.00;6.40;;;;;;;;;;5126251;27;20092;-62
2023/03/20 14:39:26;;;;;;;6.20;5.70;;;;;;;;;;5126287;27;20542;-61
2023/03/20 14:42:04;;;;;;;5.88;5.32;;;;;;;;;;5125705;27;20047;-63
2023/03/20 14:44:49;;;;;;;5.20;4.80;;;;;;;;;;5125891;27;20447;-62
2023/03/20 14:47:39;;;;;;;6.22;5.63;;;;;;;;;;5126020;27;20047;-62
2023/03/20 14:50:10;;;;;;;5.25;4.63;;;;;;;;;;5086754;27;20523;-60